Time;durP1;ratioP1;P1;durP2;ratioP2;P2;SDS_P1;SDS_P2;PMS_P1;PMS_P2;Temp;Humidity;BMP_temperature;BMP_pressure;BME280_temperature;BME280_humidity;BME280_pressure;Samples;Min_cycle;Max_cycle;Signal;HPM_P1;HPM_P2
2022/02/01 00:03:04;;;;;;;18.10;4.88;;;;;;;;;;5070466;28;20780;-46
2022/02/01 00:05:38;;;;;;;18.73;4.88;;;;;;;;;;5072159;28;20032;-45
2022/02/01 00:08:34;;;;;;;12.90;3.97;;;;;;;;;;5055445;28;20040;-45
2022/02/01 00:11:05;;;;;;;20.10;4.80;;;;;;;;;;5070089;28;20036;-45
2022/02/01 00:13:44;;;;;;;13.95;4.18;;;;;;;;;;5071666;28;20028;-49
2022/02/01 00:16:38;;;;;;;14.68;4.05;;;;;;;;;;5062584;28;20024;-46
2022/02/01 00:33:14;;;;;;;17.30;5.20;;;;;;;;;;5068368;28;20044;-48
2022/02/01 00:35:36;;;;;;;16.58;4.93;;;;;;;;;;5066933;28;20178;-46
2022/02/01 00:38:14;;;;;;;27.30;6.05;;;;;;;;;;5064679;28;20021;-46
2022/02/01 00:40:40;;;;;;;16.50;5.55;;;;;;;;;;5076439;28;20483;-44
2022/02/01 00:43:07;;;;;;;19.23;5.43;;;;;;;;;;5075735;28;20033;-44
2022/02/01 00:45:36;;;;;;;19.20;4.97;;;;;;;;;;5063486;28;20028;-47
2022/02/01 00:48:02;;;;;;;12.43;5.00;;;;;;;;;;5073548;28;20033;-44
2022/02/01 00:50:28;;;;;;;20.98;6.47;;;;;;;;;;5076835;28;20053;-45
2022/02/01 00:52:54;;;;;;;18.65;5.32;;;;;;;;;;5065691;28;20101;-45
2022/02/01 00:55:20;;;;;;;16.30;4.85;;;;;;;;;;5065088;28;20033;-47
2022/02/01 00:57:46;;;;;;;18.65;5.47;;;;;;;;;;5074013;28;20055;-46
2022/02/01 01:00:12;;;;;;;15.95;6.57;;;;;;;;;;5075468;28;20035;-46
2022/02/01 01:02:39;;;;;;;24.55;6.15;;;;;;;;;;5061963;28;20452;-47
2022/02/01 01:05:06;;;;;;;25.77;5.88;;;;;;;;;;5068881;28;20043;-44
2022/02/01 01:07:32;;;;;;;17.85;5.47;;;;;;;;;;5074404;28;20115;-44
2022/02/01 01:09:59;;;;;;;17.38;5.85;;;;;;;;;;5075503;28;20108;-47
2022/02/01 01:12:27;;;;;;;18.60;5.60;;;;;;;;;;5074633;28;20024;-45
2022/02/01 01:15:14;;;;;;;20.30;6.13;;;;;;;;;;5074311;28;20044;-44
2022/02/01 01:44:51;;;;;;;14.77;5.40;;;;;;;;;;5066651;28;20039;-48
2022/02/01 01:55:32;;;;;;;23.42;6.55;;;;;;;;;;5058854;28;20086;-45
2022/02/01 01:57:58;;;;;;;20.98;6.43;;;;;;;;;;5074415;28;20024;-45
2022/02/01 02:02:56;;;;;;;20.35;6.15;;;;;;;;;;5070093;28;20114;-48
2022/02/01 02:05:22;;;;;;;16.15;5.82;;;;;;;;;;5074312;28;20028;-49
2022/02/01 02:07:50;;;;;;;27.15;6.55;;;;;;;;;;5071309;28;20016;-45
2022/02/01 02:10:16;;;;;;;21.77;6.03;;;;;;;;;;5066278;28;20033;-45
2022/02/01 02:12:57;;;;;;;23.50;6.60;;;;;;;;;;5070924;28;20028;-46
2022/02/01 02:15:42;;;;;;;19.27;5.80;;;;;;;;;;5057319;28;20036;-47
2022/02/01 02:18:08;;;;;;;21.65;5.35;;;;;;;;;;5074185;28;20029;-47
2022/02/01 02:20:38;;;;;;;15.35;5.55;;;;;;;;;;5072822;28;20107;-45
2022/02/01 02:23:04;;;;;;;19.80;6.03;;;;;;;;;;5056376;28;20031;-48
2022/02/01 02:25:35;;;;;;;17.00;5.82;;;;;;;;;;5071461;28;20364;-49
2022/02/01 02:28:01;;;;;;;15.00;5.47;;;;;;;;;;5064317;28;20099;-46
2022/02/01 02:30:27;;;;;;;20.13;6.93;;;;;;;;;;5063299;28;20044;-45
2022/02/01 02:32:53;;;;;;;27.70;6.75;;;;;;;;;;5073347;28;20032;-46
2022/02/01 02:35:19;;;;;;;22.90;6.57;;;;;;;;;;5072408;28;20029;-46
2022/02/01 02:37:45;;;;;;;25.55;6.18;;;;;;;;;;5068288;28;20028;-47
2022/02/01 02:40:34;;;;;;;19.40;5.90;;;;;;;;;;5061923;28;20036;-49
2022/02/01 02:45:44;;;;;;;21.02;7.00;;;;;;;;;;5064841;28;20035;-46
2022/02/01 02:48:12;;;;;;;28.45;6.30;;;;;;;;;;5073402;28;20103;-46
2022/02/01 02:50:38;;;;;;;21.30;6.55;;;;;;;;;;5073124;28;20025;-47
2022/02/01 02:53:04;;;;;;;31.27;8.65;;;;;;;;;;5063377;28;20129;-47
2022/02/01 02:55:32;;;;;;;22.88;7.60;;;;;;;;;;5073282;28;20121;-47
2022/02/01 02:57:58;;;;;;;23.63;7.88;;;;;;;;;;5063942;28;20025;-44
2022/02/01 03:00:24;;;;;;;24.92;7.65;;;;;;;;;;5066617;28;20037;-45
2022/02/01 03:02:50;;;;;;;24.02;6.78;;;;;;;;;;5063645;28;20063;-46
2022/02/01 03:05:16;;;;;;;20.95;7.13;;;;;;;;;;5070742;28;20031;-49
2022/02/01 03:07:42;;;;;;;20.90;6.47;;;;;;;;;;5073381;28;20432;-45
2022/02/01 03:10:08;;;;;;;22.45;7.30;;;;;;;;;;5071186;28;20021;-46
2022/02/01 03:13:08;;;;;;;20.25;7.15;;;;;;;;;;5059630;28;20036;-46
2022/02/01 03:20:34;;;;;;;21.48;7.63;;;;;;;;;;5064313;28;20376;-44
2022/02/01 03:23:00;;;;;;;24.50;8.48;;;;;;;;;;5068875;28;20021;-46
2022/02/01 03:25:25;;;;;;;20.17;8.30;;;;;;;;;;5064817;28;20029;-46
2022/02/01 03:27:51;;;;;;;24.30;8.30;;;;;;;;;;5066079;28;20043;-45
2022/02/01 03:30:17;;;;;;;23.77;8.30;;;;;;;;;;5065987;28;20044;-47
2022/02/01 03:32:43;;;;;;;26.90;8.65;;;;;;;;;;5066444;28;20583;-45
2022/02/01 03:35:09;;;;;;;21.35;7.63;;;;;;;;;;5066752;28;20424;-50
2022/02/01 03:37:35;;;;;;;19.67;8.15;;;;;;;;;;5057691;28;20067;-46
2022/02/01 03:40:01;;;;;;;21.25;7.65;;;;;;;;;;5062910;28;20024;-50
2022/02/01 03:42:27;;;;;;;23.10;8.75;;;;;;;;;;5068567;28;20025;-48
2022/02/01 03:44:53;;;;;;;19.88;7.90;;;;;;;;;;5067549;28;20138;-45
2022/02/01 03:47:19;;;;;;;27.75;8.48;;;;;;;;;;5068411;28;20017;-44
2022/02/01 03:49:46;;;;;;;22.77;10.38;;;;;;;;;;5066180;28;20025;-44
2022/02/01 03:52:12;;;;;;;30.27;9.55;;;;;;;;;;5067119;28;20051;-44
2022/02/01 03:54:38;;;;;;;29.23;9.43;;;;;;;;;;5071852;28;20115;-46
2022/02/01 03:57:05;;;;;;;32.35;10.43;;;;;;;;;;5070301;28;20064;-45
2022/02/01 03:59:31;;;;;;;26.63;9.32;;;;;;;;;;5062477;28;20543;-46
2022/02/01 04:01:58;;;;;;;26.75;9.77;;;;;;;;;;5065268;28;20112;-45
2022/02/01 04:04:28;;;;;;;23.80;9.07;;;;;;;;;;5072318;28;20070;-45
2022/02/01 04:06:55;;;;;;;24.88;9.43;;;;;;;;;;5070052;28;20103;-45
2022/02/01 04:09:25;;;;;;;26.52;8.70;;;;;;;;;;5061575;28;20047;-47
2022/02/01 04:11:56;;;;;;;23.48;9.48;;;;;;;;;;5071600;28;20126;-45
2022/02/01 04:14:26;;;;;;;19.98;9.20;;;;;;;;;;5064044;28;20029;-46
2022/02/01 04:16:52;;;;;;;24.08;9.35;;;;;;;;;;5055925;28;20047;-45
2022/02/01 04:19:18;;;;;;;21.20;8.57;;;;;;;;;;5061346;28;20384;-45
2022/02/01 04:22:05;;;;;;;24.42;9.40;;;;;;;;;;5057864;28;20033;-46
2022/02/01 04:24:35;;;;;;;24.10;9.35;;;;;;;;;;5069062;28;20040;-45
2022/02/01 04:27:01;;;;;;;21.88;9.82;;;;;;;;;;5070853;28;20028;-45
2022/02/01 04:29:28;;;;;;;25.42;9.65;;;;;;;;;;5064996;28;20021;-45
2022/02/01 04:31:54;;;;;;;28.35;10.00;;;;;;;;;;5067298;28;20033;-48
2022/02/01 04:34:20;;;;;;;25.35;10.07;;;;;;;;;;5060484;28;20033;-48
2022/02/01 04:36:46;;;;;;;20.75;8.73;;;;;;;;;;5070752;28;20028;-47
2022/02/01 04:39:12;;;;;;;23.15;8.60;;;;;;;;;;5065784;28;20033;-48
2022/02/01 04:41:38;;;;;;;25.05;9.57;;;;;;;;;;5060004;28;20038;-49
2022/02/01 04:44:04;;;;;;;26.00;9.35;;;;;;;;;;5063811;28;20029;-45
2022/02/01 04:46:30;;;;;;;22.60;8.43;;;;;;;;;;5064059;28;20021;-50
2022/02/01 04:48:59;;;;;;;22.88;8.25;;;;;;;;;;5067864;28;20028;-46
2022/02/01 04:51:26;;;;;;;19.48;8.32;;;;;;;;;;5071231;28;20454;-49
2022/02/01 04:53:52;;;;;;;22.30;9.25;;;;;;;;;;5065674;28;20048;-46
2022/02/01 04:56:18;;;;;;;22.50;8.02;;;;;;;;;;5072023;28;20029;-46
2022/02/01 04:58:45;;;;;;;22.45;8.45;;;;;;;;;;5064427;28;20059;-46
2022/02/01 05:01:14;;;;;;;21.65;8.63;;;;;;;;;;5071502;28;20111;-45
2022/02/01 05:03:41;;;;;;;18.02;7.25;;;;;;;;;;5070088;28;20771;-47
2022/02/01 05:06:08;;;;;;;25.95;8.88;;;;;;;;;;5055788;28;20540;-45
2022/02/01 05:08:34;;;;;;;19.88;8.02;;;;;;;;;;5057943;28;20400;-45
2022/02/01 05:11:00;;;;;;;18.95;7.80;;;;;;;;;;5059701;28;20071;-45
2022/02/01 05:16:19;;;;;;;23.38;8.32;;;;;;;;;;5070546;28;20050;-45
2022/02/01 05:18:47;;;;;;;18.33;7.75;;;;;;;;;;5064440;28;20033;-45
2022/02/01 05:21:21;;;;;;;21.25;8.70;;;;;;;;;;5065586;28;20519;-45
2022/02/01 05:23:47;;;;;;;24.75;8.32;;;;;;;;;;5072924;28;20029;-46
2022/02/01 05:26:14;;;;;;;22.13;8.85;;;;;;;;;;5068605;28;20029;-46
2022/02/01 05:28:41;;;;;;;23.75;9.15;;;;;;;;;;5069270;28;20053;-48
2022/02/01 05:31:07;;;;;;;18.30;8.23;;;;;;;;;;5060614;28;20132;-47
2022/02/01 05:33:33;;;;;;;19.15;8.50;;;;;;;;;;5074555;28;20028;-48
2022/02/01 05:36:00;;;;;;;20.73;9.05;;;;;;;;;;5070021;28;20025;-47
2022/02/01 05:38:26;;;;;;;20.90;8.95;;;;;;;;;;5069551;28;20107;-50
2022/02/01 05:40:52;;;;;;;24.58;8.38;;;;;;;;;;5060077;28;20170;-46
2022/02/01 05:43:26;;;;;;;18.80;8.30;;;;;;;;;;5073139;28;20048;-48
2022/02/01 05:45:53;;;;;;;23.50;10.40;;;;;;;;;;5071673;28;20361;-48
2022/02/01 05:48:19;;;;;;;23.77;8.93;;;;;;;;;;5074571;28;20044;-46
2022/02/01 05:50:49;;;;;;;26.00;9.32;;;;;;;;;;5072726;28;20129;-46
2022/02/01 05:53:16;;;;;;;26.95;10.77;;;;;;;;;;5069587;28;20029;-46
2022/02/01 05:55:42;;;;;;;21.98;9.00;;;;;;;;;;5066044;28;20100;-49
2022/02/01 05:58:08;;;;;;;21.20;10.57;;;;;;;;;;5062463;28;20508;-46
2022/02/01 06:00:34;;;;;;;24.30;9.48;;;;;;;;;;5074410;28;20033;-48
2022/02/01 06:03:01;;;;;;;28.17;10.30;;;;;;;;;;5060898;28;20493;-49
2022/02/01 06:05:28;;;;;;;20.17;9.00;;;;;;;;;;5066888;28;20368;-47
2022/02/01 06:07:54;;;;;;;24.88;10.30;;;;;;;;;;5074558;28;20035;-49
2022/02/01 06:10:20;;;;;;;26.95;10.02;;;;;;;;;;5067148;28;20024;-47
2022/02/01 06:12:47;;;;;;;27.35;9.45;;;;;;;;;;5069850;28;20169;-46
2022/02/01 06:15:14;;;;;;;21.67;9.00;;;;;;;;;;5066059;28;20036;-47
2022/02/01 06:17:41;;;;;;;20.55;9.13;;;;;;;;;;5065238;28;20043;-46
2022/02/01 06:20:08;;;;;;;24.60;9.07;;;;;;;;;;5059128;28;20143;-46
2022/02/01 06:22:34;;;;;;;23.30;9.50;;;;;;;;;;5073077;28;20042;-47
2022/02/01 06:25:01;;;;;;;32.53;10.15;;;;;;;;;;5073988;28;20020;-47
2022/02/01 06:27:27;;;;;;;24.02;9.45;;;;;;;;;;5070930;28;20060;-45
2022/02/01 06:29:53;;;;;;;26.77;8.65;;;;;;;;;;5083454;28;20052;-46
2022/02/01 06:32:19;;;;;;;20.30;8.20;;;;;;;;;;5062046;28;20020;-47
2022/02/01 06:34:45;;;;;;;29.25;9.50;;;;;;;;;;5071529;28;20123;-46
2022/02/01 06:37:11;;;;;;;25.20;9.50;;;;;;;;;;5067819;28;20516;-45
2022/02/01 06:39:37;;;;;;;15.55;7.55;;;;;;;;;;5073283;28;20032;-49
2022/02/01 06:42:04;;;;;;;21.15;8.27;;;;;;;;;;5072280;28;20031;-47
2022/02/01 06:44:31;;;;;;;21.52;9.20;;;;;;;;;;5065878;28;20120;-45
2022/02/01 06:46:57;;;;;;;19.40;7.63;;;;;;;;;;5073196;28;20033;-46
2022/02/01 06:49:23;;;;;;;25.23;9.23;;;;;;;;;;5064261;28;20028;-46
2022/02/01 06:51:49;;;;;;;20.23;7.95;;;;;;;;;;5061468;28;20485;-45
2022/02/01 06:54:15;;;;;;;19.55;8.20;;;;;;;;;;5062313;28;20062;-45
2022/02/01 06:56:41;;;;;;;21.17;7.82;;;;;;;;;;5073838;28;20021;-46
2022/02/01 06:59:08;;;;;;;20.02;7.40;;;;;;;;;;5065345;28;20070;-45
2022/02/01 07:01:34;;;;;;;20.55;8.10;;;;;;;;;;5073475;28;20020;-45
2022/02/01 07:04:00;;;;;;;26.80;8.50;;;;;;;;;;5065353;28;20073;-46
2022/02/01 07:06:29;;;;;;;26.27;7.78;;;;;;;;;;5061945;28;20040;-47
2022/02/01 07:08:57;;;;;;;23.40;7.53;;;;;;;;;;5058741;28;20020;-46
2022/02/01 07:11:23;;;;;;;19.52;7.50;;;;;;;;;;5062995;28;20029;-44
2022/02/01 07:13:49;;;;;;;31.88;8.13;;;;;;;;;;5072946;28;20099;-45
2022/02/01 07:16:16;;;;;;;19.65;7.30;;;;;;;;;;5056053;28;20064;-45
2022/02/01 07:18:42;;;;;;;18.20;7.38;;;;;;;;;;5065510;28;20346;-46
2022/02/01 07:21:08;;;;;;;20.95;6.50;;;;;;;;;;5071826;28;20089;-45
2022/02/01 07:23:34;;;;;;;18.70;6.35;;;;;;;;;;5070091;28;20043;-45
2022/02/01 07:26:01;;;;;;;17.77;6.47;;;;;;;;;;5073048;28;20029;-45
2022/02/01 07:28:28;;;;;;;12.05;5.72;;;;;;;;;;5062316;28;20028;-48
2022/02/01 07:30:55;;;;;;;21.67;5.82;;;;;;;;;;5068138;28;20056;-45
2022/02/01 07:33:22;;;;;;;9.95;4.88;;;;;;;;;;5060083;28;20036;-45
2022/02/01 07:35:49;;;;;;;12.98;5.47;;;;;;;;;;5071713;28;20709;-45
2022/02/01 07:38:18;;;;;;;26.75;5.63;;;;;;;;;;5069013;28;20043;-45
2022/02/01 07:40:44;;;;;;;15.18;4.93;;;;;;;;;;5069517;28;20037;-47
2022/02/01 07:43:10;;;;;;;15.57;5.05;;;;;;;;;;5064012;28;20077;-45
2022/02/01 07:45:39;;;;;;;12.68;4.28;;;;;;;;;;5066327;28;20111;-45
2022/02/01 07:48:05;;;;;;;13.40;5.10;;;;;;;;;;5058063;28;20028;-50
2022/02/01 07:50:36;;;;;;;16.52;5.13;;;;;;;;;;5063624;28;20021;-52
2022/02/01 07:53:02;;;;;;;18.98;5.93;;;;;;;;;;5061490;28;20115;-51
2022/02/01 07:55:28;;;;;;;16.27;5.65;;;;;;;;;;5068382;28;20037;-51
2022/02/01 07:57:54;;;;;;;13.20;4.78;;;;;;;;;;5064681;28;20388;-52
2022/02/01 08:00:20;;;;;;;19.52;4.53;;;;;;;;;;5058547;28;20037;-53
2022/02/01 08:02:46;;;;;;;23.95;4.60;;;;;;;;;;5059489;28;20445;-50
2022/02/01 08:05:12;;;;;;;20.98;4.57;;;;;;;;;;5056335;28;21478;-55
2022/02/01 08:07:38;;;;;;;9.45;3.67;;;;;;;;;;5064835;28;20029;-54
2022/02/01 08:10:09;;;;;;;16.65;4.25;;;;;;;;;;5067104;28;20036;-52
2022/02/01 08:14:05;;;;;;;11.32;4.38;;;;;;;;;;5062044;28;20130;-51
2022/02/01 08:16:10;;;;;;;16.83;4.18;;;;;;;;;;5057535;28;20037;-53
2022/02/01 08:21:07;;;;;;;11.85;4.30;;;;;;;;;;5066931;28;20163;-50
2022/02/01 08:23:34;;;;;;;15.15;4.55;;;;;;;;;;5051801;28;20074;-52
2022/02/01 08:26:00;;;;;;;19.58;3.85;;;;;;;;;;5054114;28;20061;-50
2022/02/01 08:28:26;;;;;;;10.32;3.20;;;;;;;;;;5067762;28;20078;-52
2022/02/01 08:30:53;;;;;;;13.02;3.45;;;;;;;;;;5064741;28;20029;-50
2022/02/01 08:33:20;;;;;;;11.32;3.45;;;;;;;;;;5067539;28;20386;-55
2022/02/01 08:35:46;;;;;;;21.15;3.40;;;;;;;;;;5064745;28;20388;-50
2022/02/01 08:38:12;;;;;;;12.60;3.92;;;;;;;;;;5064004;28;20129;-52
2022/02/01 08:40:38;;;;;;;9.32;3.00;;;;;;;;;;5059592;28;20028;-50
2022/02/01 08:43:04;;;;;;;13.05;3.05;;;;;;;;;;5051413;28;20037;-53
2022/02/01 08:45:30;;;;;;;8.50;3.05;;;;;;;;;;5064213;28;20435;-54
2022/02/01 08:47:57;;;;;;;12.43;3.85;;;;;;;;;;5056724;28;20029;-56
2022/02/01 08:50:27;;;;;;;9.27;2.85;;;;;;;;;;5063888;28;20035;-53
2022/02/01 08:52:58;;;;;;;16.50;3.33;;;;;;;;;;5067943;28;20036;-50
2022/02/01 08:55:34;;;;;;;20.00;3.50;;;;;;;;;;5060849;28;20151;-53
2022/02/01 08:58:01;;;;;;;8.88;2.88;;;;;;;;;;5069394;28;20035;-50
2022/02/01 09:00:28;;;;;;;6.25;2.63;;;;;;;;;;5067016;28;20024;-53
2022/02/01 09:02:54;;;;;;;11.75;3.15;;;;;;;;;;5074248;28;20079;-54
2022/02/01 09:05:20;;;;;;;9.10;2.95;;;;;;;;;;5067911;28;20051;-51
2022/02/01 09:07:46;;;;;;;13.32;3.35;;;;;;;;;;5057498;28;20462;-51
2022/02/01 09:10:13;;;;;;;12.18;2.50;;;;;;;;;;5073062;28;20485;-55
2022/02/01 09:12:39;;;;;;;7.07;2.78;;;;;;;;;;5071244;28;20032;-51
2022/02/01 09:15:05;;;;;;;10.00;2.35;;;;;;;;;;5074797;28;20067;-50
2022/02/01 09:17:31;;;;;;;4.40;2.22;;;;;;;;;;5072299;28;20477;-52
2022/02/01 09:19:58;;;;;;;8.27;2.20;;;;;;;;;;5070330;28;20039;-52
2022/02/01 09:22:24;;;;;;;12.55;2.67;;;;;;;;;;5062613;28;20493;-51
2022/02/01 09:24:50;;;;;;;12.32;2.45;;;;;;;;;;5068882;28;20032;-52
2022/02/01 09:27:16;;;;;;;20.98;3.08;;;;;;;;;;5064880;28;20063;-54
2022/02/01 09:29:42;;;;;;;14.10;2.28;;;;;;;;;;5068140;28;20035;-53
2022/02/01 09:32:09;;;;;;;7.97;2.53;;;;;;;;;;5066181;28;20100;-51
2022/02/01 09:34:35;;;;;;;10.80;1.80;;;;;;;;;;5075831;28;20037;-52
2022/02/01 09:37:03;;;;;;;10.35;2.60;;;;;;;;;;5063662;28;20032;-56
2022/02/01 09:39:29;;;;;;;9.82;3.05;;;;;;;;;;5067256;28;20037;-52
2022/02/01 09:41:55;;;;;;;8.32;2.80;;;;;;;;;;5068460;28;20528;-53
2022/02/01 09:44:22;;;;;;;10.63;2.33;;;;;;;;;;5058851;28;20025;-50
2022/02/01 09:46:50;;;;;;;6.80;2.63;;;;;;;;;;5064305;28;20032;-54
2022/02/01 09:49:16;;;;;;;9.48;2.50;;;;;;;;;;5074776;28;20394;-54
2022/02/01 09:51:43;;;;;;;21.50;3.50;;;;;;;;;;5059160;28;20041;-54
2022/02/01 09:54:09;;;;;;;13.70;4.15;;;;;;;;;;5069018;28;20025;-52
2022/02/01 09:56:35;;;;;;;12.00;2.47;;;;;;;;;;5069611;28;20530;-51
2022/02/01 09:59:05;;;;;;;10.45;2.65;;;;;;;;;;5065320;28;20048;-52
2022/02/01 10:01:31;;;;;;;16.85;2.97;;;;;;;;;;5064700;28;20025;-49
2022/02/01 10:04:07;;;;;;;7.13;2.53;;;;;;;;;;5065070;28;20044;-45
2022/02/01 10:06:34;;;;;;;5.05;1.77;;;;;;;;;;5074278;28;20032;-45
2022/02/01 10:09:08;;;;;;;16.65;2.97;;;;;;;;;;5075342;28;20019;-50
2022/02/01 10:11:38;;;;;;;7.32;1.80;;;;;;;;;;5068661;28;20427;-49
2022/02/01 10:14:06;;;;;;;23.23;2.97;;;;;;;;;;5066779;28;20277;-48
2022/02/01 10:16:41;;;;;;;11.50;2.42;;;;;;;;;;5064764;28;20043;-52
2022/02/01 10:19:07;;;;;;;9.48;2.40;;;;;;;;;;5072575;28;20043;-50
2022/02/01 10:21:34;;;;;;;15.02;2.83;;;;;;;;;;5071244;28;20048;-46
2022/02/01 10:24:06;;;;;;;11.02;1.83;;;;;;;;;;5069027;28;20036;-49
2022/02/01 10:26:34;;;;;;;10.75;1.80;;;;;;;;;;5063880;28;20027;-50
2022/02/01 10:29:06;;;;;;;8.73;2.38;;;;;;;;;;5073174;28;20032;-49
2022/02/01 10:31:40;;;;;;;9.40;2.63;;;;;;;;;;5062552;28;20032;-49
2022/02/01 10:36:52;;;;;;;12.60;2.25;;;;;;;;;;5068857;28;20029;-47
2022/02/01 10:39:19;;;;;;;8.57;2.47;;;;;;;;;;5065767;28;20021;-49
2022/02/01 10:42:14;;;;;;;10.68;2.33;;;;;;;;;;5061979;28;20016;-49
2022/02/01 10:44:42;;;;;;;13.57;2.70;;;;;;;;;;5059904;28;20128;-50
2022/02/01 10:47:09;;;;;;;9.73;2.38;;;;;;;;;;5069261;28;22013;-48
2022/02/01 10:49:36;;;;;;;14.77;2.85;;;;;;;;;;5066965;28;20020;-49
2022/02/01 10:52:07;;;;;;;12.02;2.30;;;;;;;;;;5070885;28;20043;-47
2022/02/01 10:54:36;;;;;;;8.65;2.25;;;;;;;;;;5068760;28;20163;-47
2022/02/01 10:57:03;;;;;;;13.15;2.45;;;;;;;;;;5068153;28;20035;-46
2022/02/01 10:59:30;;;;;;;12.20;2.40;;;;;;;;;;5056578;28;20079;-46
2022/02/01 11:01:57;;;;;;;10.93;2.30;;;;;;;;;;5068912;28;20437;-50
2022/02/01 11:04:24;;;;;;;9.80;2.25;;;;;;;;;;5064464;28;20417;-48
2022/02/01 11:06:51;;;;;;;10.57;2.53;;;;;;;;;;5070826;28;20024;-49
2022/02/01 11:09:18;;;;;;;12.73;2.80;;;;;;;;;;5067990;28;20090;-47
2022/02/01 11:11:55;;;;;;;8.52;2.20;;;;;;;;;;5069205;28;20052;-49
2022/02/01 11:14:22;;;;;;;10.45;2.65;;;;;;;;;;5065220;28;20021;-50
2022/02/01 11:16:48;;;;;;;9.52;1.85;;;;;;;;;;5064973;28;20032;-48
2022/02/01 11:19:14;;;;;;;8.48;2.00;;;;;;;;;;5060724;28;20496;-46
2022/02/01 11:21:45;;;;;;;6.95;1.95;;;;;;;;;;5061076;28;20025;-47
2022/02/01 11:24:20;;;;;;;7.10;2.33;;;;;;;;;;5062183;28;20039;-47
2022/02/01 11:26:50;;;;;;;7.20;1.73;;;;;;;;;;5066267;28;20033;-48
2022/02/01 11:32:03;;;;;;;11.73;1.95;;;;;;;;;;5066614;28;20032;-46
2022/02/01 11:34:30;;;;;;;6.40;1.83;;;;;;;;;;5055704;28;20035;-49
2022/02/01 11:37:04;;;;;;;6.90;2.72;;;;;;;;;;5057154;28;20034;-48
2022/02/01 11:39:31;;;;;;;6.88;1.98;;;;;;;;;;5067149;28;20545;-48
2022/02/01 11:41:58;;;;;;;9.07;2.30;;;;;;;;;;5067952;28;20036;-46
2022/02/01 11:44:26;;;;;;;10.43;2.88;;;;;;;;;;5069373;28;20028;-47
2022/02/01 11:47:03;;;;;;;5.85;2.20;;;;;;;;;;5066405;28;20032;-46
2022/02/01 11:49:29;;;;;;;11.05;2.10;;;;;;;;;;5064222;28;20036;-48
2022/02/01 11:52:09;;;;;;;11.35;1.90;;;;;;;;;;5060880;28;20124;-51
2022/02/01 11:54:35;;;;;;;7.63;2.17;;;;;;;;;;5063369;28;20044;-49
2022/02/01 11:57:15;;;;;;;6.55;2.40;;;;;;;;;;5065697;28;20401;-48
2022/02/01 11:59:55;;;;;;;7.43;2.45;;;;;;;;;;5068556;28;20024;-47
2022/02/01 12:02:39;;;;;;;6.63;1.92;;;;;;;;;;5063860;28;20028;-48
2022/02/01 12:05:17;;;;;;;9.15;1.95;;;;;;;;;;5060367;28;20040;-47
2022/02/01 12:07:45;;;;;;;9.82;2.10;;;;;;;;;;5061526;28;20025;-48
2022/02/01 12:10:15;;;;;;;6.47;1.90;;;;;;;;;;5070580;28;20484;-48
2022/02/01 12:12:42;;;;;;;7.65;2.65;;;;;;;;;;5070206;28;20052;-49
2022/02/01 12:15:08;;;;;;;8.57;2.10;;;;;;;;;;5067119;28;20102;-49
2022/02/01 12:17:37;;;;;;;7.50;2.45;;;;;;;;;;5076143;28;20035;-47
2022/02/01 12:20:04;;;;;;;4.88;1.52;;;;;;;;;;5065519;28;20443;-48
2022/02/01 12:22:40;;;;;;;9.27;2.00;;;;;;;;;;5059862;28;20029;-47
2022/02/01 12:25:07;;;;;;;6.70;1.50;;;;;;;;;;5063428;28;20048;-47
2022/02/01 12:27:37;;;;;;;9.23;1.45;;;;;;;;;;5056268;28;20487;-48
2022/02/01 12:30:05;;;;;;;8.35;1.33;;;;;;;;;;5062243;28;20024;-50
2022/02/01 12:32:31;;;;;;;6.80;1.27;;;;;;;;;;5061346;28;20462;-46
2022/02/01 12:34:57;;;;;;;6.95;1.77;;;;;;;;;;5064461;28;20025;-46
2022/02/01 12:37:24;;;;;;;5.28;1.77;;;;;;;;;;5071730;28;20392;-46
2022/02/01 12:40:11;;;;;;;7.22;1.95;;;;;;;;;;5064651;28;20025;-47
2022/02/01 12:42:47;;;;;;;8.52;1.20;;;;;;;;;;5060291;28;20107;-47
2022/02/01 12:47:59;;;;;;;9.75;1.83;;;;;;;;;;5071818;28;20097;-47
2022/02/01 12:50:25;;;;;;;8.73;1.80;;;;;;;;;;5061890;28;20453;-46
2022/02/01 12:52:55;;;;;;;10.40;1.85;;;;;;;;;;5071416;28;20120;-48
2022/02/01 12:55:22;;;;;;;9.88;1.65;;;;;;;;;;5069467;28;20127;-47
2022/02/01 12:57:48;;;;;;;7.45;1.48;;;;;;;;;;5059071;28;20029;-47
2022/02/01 13:00:16;;;;;;;3.70;1.38;;;;;;;;;;5066208;28;20032;-47
2022/02/01 13:02:42;;;;;;;5.78;1.52;;;;;;;;;;5064237;28;20030;-48
2022/02/01 13:05:09;;;;;;;6.03;1.92;;;;;;;;;;5062793;28;20032;-49
2022/02/01 13:07:57;;;;;;;9.57;1.45;;;;;;;;;;5077817;28;20032;-47
2022/02/01 13:15:53;;;;;;;5.03;1.20;;;;;;;;;;5067179;28;20385;-51
2022/02/01 13:20:59;;;;;;;4.78;1.60;;;;;;;;;;5066349;28;20008;-48
2022/02/01 13:23:35;;;;;;;8.23;1.52;;;;;;;;;;5069463;28;20029;-49
2022/02/01 13:26:06;;;;;;;2.70;1.30;;;;;;;;;;5060056;28;20519;-50
2022/02/01 13:28:33;;;;;;;7.57;1.92;;;;;;;;;;5064200;28;20476;-48
2022/02/01 13:31:05;;;;;;;4.40;1.80;;;;;;;;;;5062105;28;20552;-48
2022/02/01 13:33:32;;;;;;;4.20;1.55;;;;;;;;;;5063060;28;20481;-47
2022/02/01 13:35:58;;;;;;;5.90;1.38;;;;;;;;;;5069669;28;20424;-47
2022/02/01 13:38:25;;;;;;;4.30;1.63;;;;;;;;;;5064228;28;20024;-47
2022/02/01 13:40:53;;;;;;;3.70;1.70;;;;;;;;;;5062144;28;20691;-47
2022/02/01 13:43:20;;;;;;;3.97;1.70;;;;;;;;;;5069891;28;20039;-47
2022/02/01 13:45:48;;;;;;;4.53;1.73;;;;;;;;;;5067081;28;20093;-49
2022/02/01 13:48:29;;;;;;;3.85;1.70;;;;;;;;;;5065034;28;20023;-47
2022/02/01 13:50:57;;;;;;;8.80;1.88;;;;;;;;;;5074046;28;20037;-47
2022/02/01 13:53:23;;;;;;;7.45;1.88;;;;;;;;;;5064874;28;20032;-47
2022/02/01 13:56:00;;;;;;;6.78;2.15;;;;;;;;;;5071121;28;20029;-52
2022/02/01 13:58:26;;;;;;;4.55;2.03;;;;;;;;;;5067616;28;20028;-48
2022/02/01 14:00:54;;;;;;;5.10;2.22;;;;;;;;;;5068058;28;20028;-48
2022/02/01 14:06:07;;;;;;;3.55;1.95;;;;;;;;;;5069280;28;20439;-50
2022/02/01 14:11:45;;;;;;;5.10;2.05;;;;;;;;;;5044539;28;20448;-47
2022/02/01 14:14:37;;;;;;;;;;;;;;;;;;5057116;28;21768;-50
2022/02/01 14:22:31;;;;;;;6.82;2.20;;;;;;;;;;5073342;28;20428;-51
2022/02/01 14:23:15;;;;;;;5.38;2.33;;;;;;;;;;5076125;28;20157;-48
2022/02/01 14:28:19;;;;;;;5.72;2.17;;;;;;;;;;5068006;28;20027;-50
2022/02/01 14:33:43;;;;;;;7.07;2.40;;;;;;;;;;5066225;28;20070;-47
2022/02/01 14:36:12;;;;;;;5.18;2.50;;;;;;;;;;5066536;28;20047;-48
2022/02/01 14:44:28;;;;;;;5.88;2.22;;;;;;;;;;5067386;28;20086;-52
2022/02/01 14:46:50;;;;;;;4.03;2.08;;;;;;;;;;5069152;28;20036;-49
2022/02/01 14:49:16;;;;;;;6.78;2.40;;;;;;;;;;5064313;28;20032;-49
2022/02/01 14:51:42;;;;;;;4.65;2.28;;;;;;;;;;5057247;28;20059;-53
2022/02/01 14:54:11;;;;;;;5.32;2.25;;;;;;;;;;5067570;28;20454;-50
2022/02/01 14:56:40;;;;;;;6.15;3.20;;;;;;;;;;5063286;28;20029;-48
2022/02/01 15:07:36;;;;;;;3.63;2.20;;;;;;;;;;5067580;28;20040;-48
2022/02/01 15:12:49;;;;;;;3.83;2.50;;;;;;;;;;5058706;28;20039;-48
2022/02/01 15:15:15;;;;;;;8.27;2.65;;;;;;;;;;5072497;28;20114;-51
2022/02/01 15:17:42;;;;;;;7.22;2.47;;;;;;;;;;5072966;28;20097;-47
2022/02/01 15:20:09;;;;;;;6.43;2.50;;;;;;;;;;5069695;28;20034;-51
2022/02/01 15:22:35;;;;;;;4.10;2.47;;;;;;;;;;5064736;28;20032;-51
2022/02/01 15:25:01;;;;;;;4.30;2.17;;;;;;;;;;5061711;28;20468;-52
2022/02/01 15:27:27;;;;;;;3.83;2.70;;;;;;;;;;5074152;28;20535;-52
2022/02/01 15:29:53;;;;;;;5.65;2.45;;;;;;;;;;5068536;28;20147;-48
2022/02/01 15:32:19;;;;;;;4.70;2.17;;;;;;;;;;5062479;28;20035;-53
2022/02/01 15:34:46;;;;;;;4.75;2.47;;;;;;;;;;5064841;28;20457;-50
2022/02/01 15:37:12;;;;;;;5.68;2.92;;;;;;;;;;5065272;28;20350;-48
2022/02/01 15:58:29;;;;;;;5.63;3.40;;;;;;;;;;5067755;28;20098;-50
2022/02/01 16:00:56;;;;;;;6.82;3.55;;;;;;;;;;5060129;28;20373;-51
2022/02/01 16:03:25;;;;;;;6.45;3.35;;;;;;;;;;5076637;28;20029;-48
2022/02/01 16:05:51;;;;;;;7.20;3.33;;;;;;;;;;5068535;28;20075;-47
2022/02/01 16:08:26;;;;;;;6.72;3.65;;;;;;;;;;5070266;28;20028;-47
2022/02/01 16:10:55;;;;;;;9.88;4.03;;;;;;;;;;5067960;28;20020;-49
2022/02/01 16:13:33;;;;;;;5.90;3.80;;;;;;;;;;5068059;28;20453;-52
2022/02/01 16:15:59;;;;;;;5.90;3.35;;;;;;;;;;5065874;28;20028;-47
2022/02/01 16:18:25;;;;;;;5.72;3.75;;;;;;;;;;5070588;28;20036;-48
2022/02/01 16:20:51;;;;;;;7.25;3.80;;;;;;;;;;5068843;28;20032;-47
2022/02/01 16:23:18;;;;;;;6.88;3.70;;;;;;;;;;5060072;28;20032;-47
2022/02/01 16:25:44;;;;;;;5.85;3.67;;;;;;;;;;5064908;28;20035;-49
2022/02/01 16:28:10;;;;;;;7.72;3.65;;;;;;;;;;5075548;28;20033;-48
2022/02/01 16:30:37;;;;;;;5.43;3.40;;;;;;;;;;5066431;28;20394;-52
2022/02/01 16:33:03;;;;;;;6.68;4.07;;;;;;;;;;5073302;28;20130;-48
2022/02/01 16:35:29;;;;;;;9.10;4.00;;;;;;;;;;5075261;28;20085;-49
2022/02/01 16:37:55;;;;;;;6.63;4.15;;;;;;;;;;5070558;28;20024;-53
2022/02/01 16:40:22;;;;;;;7.57;3.13;;;;;;;;;;5077761;28;20084;-51
2022/02/01 16:42:48;;;;;;;6.47;3.80;;;;;;;;;;5070985;28;20461;-53
2022/02/01 16:45:16;;;;;;;9.05;3.70;;;;;;;;;;5069373;28;20086;-50
2022/02/01 16:47:42;;;;;;;7.05;4.18;;;;;;;;;;5075234;28;20023;-51
2022/02/01 16:50:17;;;;;;;8.57;4.88;;;;;;;;;;5073391;28;20384;-52
2022/02/01 16:52:48;;;;;;;6.65;3.70;;;;;;;;;;5063819;28;20399;-47
2022/02/01 16:55:21;;;;;;;6.38;4.18;;;;;;;;;;5067713;28;20029;-47
2022/02/01 16:57:55;;;;;;;7.82;3.90;;;;;;;;;;5059433;28;20023;-50